sensor_id;sensor_type;location;lat;lon;timestamp;temperature;humidity
66586;SHT30;53444;45.822;16.092;2023-03-11T00:00:20;7.20;95.05
66586;SHT30;53444;45.822;16.092;2023-03-11T00:02:48;7.29;95.20
66586;SHT30;53444;45.822;16.092;2023-03-11T00:05:16;7.39;95.06
66586;SHT30;53444;45.822;16.092;2023-03-11T00:07:44;7.45;94.96
66586;SHT30;53444;45.822;16.092;2023-03-11T00:10:14;7.46;94.81
66586;SHT30;53444;45.822;16.092;2023-03-11T00:12:40;7.43;95.13
66586;SHT30;53444;45.822;16.092;2023-03-11T00:15:08;7.48;95.18
66586;SHT30;53444;45.822;16.092;2023-03-11T00:17:36;7.59;95.08
66586;SHT30;53444;45.822;16.092;2023-03-11T00:20:04;7.63;95.03
66586;SHT30;53444;45.822;16.092;2023-03-11T00:22:31;7.66;94.86
66586;SHT30;53444;45.822;16.092;2023-03-11T00:24:58;7.76;94.76
66586;SHT30;53444;45.822;16.092;2023-03-11T00:27:25;7.79;94.56
66586;SHT30;53444;45.822;16.092;2023-03-11T00:29:51;7.77;94.50
66586;SHT30;53444;45.822;16.092;2023-03-11T00:32:18;7.73;94.70
66586;SHT30;53444;45.822;16.092;2023-03-11T00:34:46;7.76;94.60
66586;SHT30;53444;45.822;16.092;2023-03-11T00:37:13;7.74;94.67
66586;SHT30;53444;45.822;16.092;2023-03-11T00:39:39;7.76;94.66
66586;SHT30;53444;45.822;16.092;2023-03-11T00:42:06;7.84;94.60
66586;SHT30;53444;45.822;16.092;2023-03-11T00:44:33;7.89;94.51
66586;SHT30;53444;45.822;16.092;2023-03-11T00:46:59;7.83;94.45
66586;SHT30;53444;45.822;16.092;2023-03-11T00:49:26;7.87;94.38
66586;SHT30;53444;45.822;16.092;2023-03-11T00:51:54;7.87;94.30
66586;SHT30;53444;45.822;16.092;2023-03-11T00:54:21;7.90;94.27
66586;SHT30;53444;45.822;16.092;2023-03-11T00:56:48;7.93;94.47
66586;SHT30;53444;45.822;16.092;2023-03-11T00:59:14;7.94;94.36
66586;SHT30;53444;45.822;16.092;2023-03-11T01:01:41;7.95;94.20
66586;SHT30;53444;45.822;16.092;2023-03-11T01:04:08;7.97;94.30
66586;SHT30;53444;45.822;16.092;2023-03-11T01:06:34;7.98;94.30
66586;SHT30;53444;45.822;16.092;2023-03-11T01:09:02;7.98;94.22
66586;SHT30;53444;45.822;16.092;2023-03-11T01:11:30;8.00;94.23
66586;SHT30;53444;45.822;16.092;2023-03-11T01:13:57;8.01;94.30
66586;SHT30;53444;45.822;16.092;2023-03-11T01:16:24;8.08;94.20
66586;SHT30;53444;45.822;16.092;2023-03-11T01:18:50;8.10;94.13
66586;SHT30;53444;45.822;16.092;2023-03-11T01:21:17;8.05;94.12
66586;SHT30;53444;45.822;16.092;2023-03-11T01:23:44;8.01;94.56
66586;SHT30;53444;45.822;16.092;2023-03-11T01:26:12;8.04;94.43
66586;SHT30;53444;45.822;16.092;2023-03-11T01:28:39;8.05;94.50
66586;SHT30;53444;45.822;16.092;2023-03-11T01:31:08;8.07;94.43
66586;SHT30;53444;45.822;16.092;2023-03-11T01:33:34;8.05;94.46
66586;SHT30;53444;45.822;16.092;2023-03-11T01:36:01;8.05;94.36
66586;SHT30;53444;45.822;16.092;2023-03-11T01:38:28;8.04;94.40
66586;SHT30;53444;45.822;16.092;2023-03-11T01:40:55;8.02;94.43
66586;SHT30;53444;45.822;16.092;2023-03-11T01:43:49;7.94;94.46
66586;SHT30;53444;45.822;16.092;2023-03-11T01:46:18;7.94;94.52
66586;SHT30;53444;45.822;16.092;2023-03-11T01:48:46;7.97;94.51
66586;SHT30;53444;45.822;16.092;2023-03-11T01:51:14;7.84;94.73
66586;SHT30;53444;45.822;16.092;2023-03-11T01:53:43;7.63;95.21
66586;SHT30;53444;45.822;16.092;2023-03-11T01:56:09;7.58;95.15
66586;SHT30;53444;45.822;16.092;2023-03-11T01:58:38;7.56;94.86
66586;SHT30;53444;45.822;16.092;2023-03-11T02:01:10;7.49;94.75
66586;SHT30;53444;45.822;16.092;2023-03-11T02:03:39;7.43;94.90
66586;SHT30;53444;45.822;16.092;2023-03-11T02:06:09;7.43;95.42
66586;SHT30;53444;45.822;16.092;2023-03-11T02:08:36;7.52;95.63
66586;SHT30;53444;45.822;16.092;2023-03-11T02:11:05;7.50;95.74
66586;SHT30;53444;45.822;16.092;2023-03-11T02:13:33;7.58;95.88
66586;SHT30;53444;45.822;16.092;2023-03-11T02:16:01;7.66;95.87
66586;SHT30;53444;45.822;16.092;2023-03-11T02:18:30;7.67;95.80
66586;SHT30;53444;45.822;16.092;2023-03-11T02:21:04;7.62;95.92
66586;SHT30;53444;45.822;16.092;2023-03-11T02:23:38;7.65;96.45
66586;SHT30;53444;45.822;16.092;2023-03-11T02:26:10;7.71;96.19
66586;SHT30;53444;45.822;16.092;2023-03-11T02:28:41;7.74;96.03
66586;SHT30;53444;45.822;16.092;2023-03-11T02:31:09;7.74;95.98
66586;SHT30;53444;45.822;16.092;2023-03-11T02:33:36;7.80;95.92
66586;SHT30;53444;45.822;16.092;2023-03-11T02:36:04;7.86;95.65
66586;SHT30;53444;45.822;16.092;2023-03-11T02:38:31;7.87;95.45
66586;SHT30;53444;45.822;16.092;2023-03-11T02:41:00;7.95;95.32
66586;SHT30;53444;45.822;16.092;2023-03-11T02:43:32;8.01;95.16
66586;SHT30;53444;45.822;16.092;2023-03-11T02:46:03;8.10;94.96
66586;SHT30;53444;45.822;16.092;2023-03-11T02:48:33;8.15;94.66
66586;SHT30;53444;45.822;16.092;2023-03-11T02:51:01;8.27;94.16
66586;SHT30;53444;45.822;16.092;2023-03-11T02:53:30;8.30;93.58
66586;SHT30;53444;45.822;16.092;2023-03-11T02:55:58;8.38;93.32
66586;SHT30;53444;45.822;16.092;2023-03-11T02:58:25;8.44;93.15
66586;SHT30;53444;45.822;16.092;2023-03-11T03:00:51;8.46;92.83
66586;SHT30;53444;45.822;16.092;2023-03-11T03:03:19;8.55;92.83
66586;SHT30;53444;45.822;16.092;2023-03-11T03:05:46;8.52;92.74
66586;SHT30;53444;45.822;16.092;2023-03-11T03:08:13;8.55;92.87
66586;SHT30;53444;45.822;16.092;2023-03-11T03:10:39;8.56;92.82
66586;SHT30;53444;45.822;16.092;2023-03-11T03:13:06;8.55;92.87
66586;SHT30;53444;45.822;16.092;2023-03-11T03:15:33;8.56;92.85
66586;SHT30;53444;45.822;16.092;2023-03-11T03:17:59;8.51;92.99
66586;SHT30;53444;45.822;16.092;2023-03-11T03:20:27;8.56;92.80
66586;SHT30;53444;45.822;16.092;2023-03-11T03:22:54;8.56;92.98
66586;SHT30;53444;45.822;16.092;2023-03-11T03:25:21;8.48;93.21
66586;SHT30;53444;45.822;16.092;2023-03-11T03:27:48;8.53;92.97
66586;SHT30;53444;45.822;16.092;2023-03-11T03:30:15;8.51;92.97
66586;SHT30;53444;45.822;16.092;2023-03-11T03:32:42;8.48;93.17
66586;SHT30;53444;45.822;16.092;2023-03-11T03:35:09;8.51;93.08
66586;SHT30;53444;45.822;16.092;2023-03-11T03:37:37;8.49;93.11
66586;SHT30;53444;45.822;16.092;2023-03-11T03:40:05;8.46;93.11
66586;SHT30;53444;45.822;16.092;2023-03-11T03:42:34;8.46;93.27
66586;SHT30;53444;45.822;16.092;2023-03-11T03:45:00;8.51;93.11
66586;SHT30;53444;45.822;16.092;2023-03-11T03:47:27;8.44;93.18
66586;SHT30;53444;45.822;16.092;2023-03-11T03:49:54;8.40;93.42
66586;SHT30;53444;45.822;16.092;2023-03-11T03:52:21;8.45;93.22
66586;SHT30;53444;45.822;16.092;2023-03-11T03:54:49;8.44;93.22
66586;SHT30;53444;45.822;16.092;2023-03-11T03:57:16;8.40;93.32
66586;SHT30;53444;45.822;16.092;2023-03-11T03:59:43;8.41;93.54
66586;SHT30;53444;45.822;16.092;2023-03-11T04:02:09;8.41;93.53
66586;SHT30;53444;45.822;16.092;2023-03-11T04:04:36;8.49;93.40
66586;SHT30;53444;45.822;16.092;2023-03-11T04:07:03;8.48;93.46
66586;SHT30;53444;45.822;16.092;2023-03-11T04:09:30;8.46;93.65
66586;SHT30;53444;45.822;16.092;2023-03-11T04:11:58;8.45;93.78
66586;SHT30;53444;45.822;16.092;2023-03-11T04:14:25;8.45;93.69
66586;SHT30;53444;45.822;16.092;2023-03-11T04:16:52;8.42;93.68
66586;SHT30;53444;45.822;16.092;2023-03-11T04:19:18;8.46;93.62
66586;SHT30;53444;45.822;16.092;2023-03-11T04:21:45;8.49;93.40
66586;SHT30;53444;45.822;16.092;2023-03-11T04:24:12;8.51;93.24
66586;SHT30;53444;45.822;16.092;2023-03-11T04:26:38;8.55;93.19
66586;SHT30;53444;45.822;16.092;2023-03-11T04:29:06;8.53;93.24
66586;SHT30;53444;45.822;16.092;2023-03-11T04:31:33;8.53;93.34
66586;SHT30;53444;45.822;16.092;2023-03-11T04:34:00;8.52;93.38
66586;SHT30;53444;45.822;16.092;2023-03-11T04:36:27;8.53;93.53
66586;SHT30;53444;45.822;16.092;2023-03-11T04:38:54;8.53;93.55
66586;SHT30;53444;45.822;16.092;2023-03-11T04:41:22;8.49;93.80
66586;SHT30;53444;45.822;16.092;2023-03-11T04:43:49;8.46;93.93
66586;SHT30;53444;45.822;16.092;2023-03-11T04:46:17;8.42;94.05
66586;SHT30;53444;45.822;16.092;2023-03-11T04:48:43;8.42;94.14
66586;SHT30;53444;45.822;16.092;2023-03-11T04:51:10;8.44;94.22
66586;SHT30;53444;45.822;16.092;2023-03-11T04:53:37;8.44;94.10
66586;SHT30;53444;45.822;16.092;2023-03-11T04:56:04;8.46;94.20
66586;SHT30;53444;45.822;16.092;2023-03-11T04:58:31;8.51;93.93
66586;SHT30;53444;45.822;16.092;2023-03-11T05:00:57;8.45;94.10
66586;SHT30;53444;45.822;16.092;2023-03-11T05:03:25;8.52;94.05
66586;SHT30;53444;45.822;16.092;2023-03-11T05:05:52;8.51;93.88
66586;SHT30;53444;45.822;16.092;2023-03-11T05:08:21;8.45;94.01
66586;SHT30;53444;45.822;16.092;2023-03-11T05:10:48;8.45;94.14
66586;SHT30;53444;45.822;16.092;2023-03-11T05:13:14;8.48;94.13
66586;SHT30;53444;45.822;16.092;2023-03-11T05:15:41;8.48;94.09
66586;SHT30;53444;45.822;16.092;2023-03-11T05:18:08;8.40;94.09
66586;SHT30;53444;45.822;16.092;2023-03-11T05:20:36;8.41;94.18
66586;SHT30;53444;45.822;16.092;2023-03-11T05:23:02;8.38;94.39
66586;SHT30;53444;45.822;16.092;2023-03-11T05:25:29;8.35;94.36
66586;SHT30;53444;45.822;16.092;2023-03-11T05:27:56;8.38;94.50
66586;SHT30;53444;45.822;16.092;2023-03-11T05:30:23;8.37;94.57
66586;SHT30;53444;45.822;16.092;2023-03-11T05:32:50;8.34;94.76
66586;SHT30;53444;45.822;16.092;2023-03-11T05:35:16;8.34;94.88
66586;SHT30;53444;45.822;16.092;2023-03-11T05:37:44;8.37;94.77
66586;SHT30;53444;45.822;16.092;2023-03-11T05:40:14;8.35;94.86
66586;SHT30;53444;45.822;16.092;2023-03-11T05:42:41;8.31;95.12
66586;SHT30;53444;45.822;16.092;2023-03-11T05:45:09;8.31;95.45
66586;SHT30;53444;45.822;16.092;2023-03-11T05:47:35;8.25;95.59
66586;SHT30;53444;45.822;16.092;2023-03-11T05:50:03;8.21;95.86
66586;SHT30;53444;45.822;16.092;2023-03-11T05:52:29;8.15;95.97
66586;SHT30;53444;45.822;16.092;2023-03-11T05:54:59;8.22;96.02
66586;SHT30;53444;45.822;16.092;2023-03-11T05:57:26;8.28;95.91
66586;SHT30;53444;45.822;16.092;2023-03-11T05:59:53;8.34;95.78
66586;SHT30;53444;45.822;16.092;2023-03-11T06:02:20;8.35;95.64
66586;SHT30;53444;45.822;16.092;2023-03-11T06:04:47;8.40;95.66
66586;SHT30;53444;45.822;16.092;2023-03-11T06:07:14;8.46;95.57
66586;SHT30;53444;45.822;16.092;2023-03-11T06:09:41;8.45;95.69
66586;SHT30;53444;45.822;16.092;2023-03-11T06:12:09;8.45;95.64
66586;SHT30;53444;45.822;16.092;2023-03-11T06:14:36;8.52;95.50
66586;SHT30;53444;45.822;16.092;2023-03-11T06:17:03;8.61;95.61
66586;SHT30;53444;45.822;16.092;2023-03-11T06:19:30;8.63;95.40
66586;SHT30;53444;45.822;16.092;2023-03-11T06:21:56;8.68;95.34
66586;SHT30;53444;45.822;16.092;2023-03-11T06:24:23;8.65;95.36
66586;SHT30;53444;45.822;16.092;2023-03-11T06:26:50;8.68;95.20
66586;SHT30;53444;45.822;16.092;2023-03-11T06:29:18;8.75;95.08
66586;SHT30;53444;45.822;16.092;2023-03-11T06:31:46;8.75;94.99
66586;SHT30;53444;45.822;16.092;2023-03-11T06:34:12;8.75;95.08
66586;SHT30;53444;45.822;16.092;2023-03-11T06:36:39;8.71;94.93
66586;SHT30;53444;45.822;16.092;2023-03-11T06:39:06;8.76;94.87
66586;SHT30;53444;45.822;16.092;2023-03-11T06:41:33;8.68;94.99
66586;SHT30;53444;45.822;16.092;2023-03-11T06:44:00;8.72;94.76
66586;SHT30;53444;45.822;16.092;2023-03-11T06:46:28;8.76;94.70
66586;SHT30;53444;45.822;16.092;2023-03-11T06:48:55;8.80;94.70
66586;SHT30;53444;45.822;16.092;2023-03-11T06:51:22;8.80;94.66
66586;SHT30;53444;45.822;16.092;2023-03-11T06:53:49;8.86;94.60
66586;SHT30;53444;45.822;16.092;2023-03-11T06:56:17;8.82;94.82
66586;SHT30;53444;45.822;16.092;2023-03-11T06:58:44;8.77;94.79
66586;SHT30;53444;45.822;16.092;2023-03-11T07:01:12;8.87;94.59
66586;SHT30;53444;45.822;16.092;2023-03-11T07:03:40;8.94;94.58
66586;SHT30;53444;45.822;16.092;2023-03-11T07:06:11;8.90;94.32
66586;SHT30;53444;45.822;16.092;2023-03-11T07:08:38;8.97;94.19
66586;SHT30;53444;45.822;16.092;2023-03-11T07:11:06;8.97;94.14
66586;SHT30;53444;45.822;16.092;2023-03-11T07:13:34;8.94;94.22
66586;SHT30;53444;45.822;16.092;2023-03-11T07:16:03;9.00;94.17
66586;SHT30;53444;45.822;16.092;2023-03-11T07:18:30;9.04;94.07
66586;SHT30;53444;45.822;16.092;2023-03-11T07:21:00;9.16;93.83
66586;SHT30;53444;45.822;16.092;2023-03-11T07:23:27;9.27;93.48
66586;SHT30;53444;45.822;16.092;2023-03-11T07:25:53;9.31;93.25
66586;SHT30;53444;45.822;16.092;2023-03-11T07:28:20;9.33;93.27
66586;SHT30;53444;45.822;16.092;2023-03-11T07:30:47;9.34;92.99
66586;SHT30;53444;45.822;16.092;2023-03-11T07:33:14;9.40;92.98
66586;SHT30;53444;45.822;16.092;2023-03-11T07:35:41;9.54;92.72
66586;SHT30;53444;45.822;16.092;2023-03-11T07:38:10;9.55;92.21
66586;SHT30;53444;45.822;16.092;2023-03-11T07:40:36;9.62;92.22
66586;SHT30;53444;45.822;16.092;2023-03-11T07:43:03;9.64;92.03
66586;SHT30;53444;45.822;16.092;2023-03-11T07:45:30;9.71;91.99
66586;SHT30;53444;45.822;16.092;2023-03-11T07:47:57;9.65;92.22
66586;SHT30;53444;45.822;16.092;2023-03-11T07:50:24;9.70;92.06
66586;SHT30;53444;45.822;16.092;2023-03-11T07:52:50;9.74;92.10
66586;SHT30;53444;45.822;16.092;2023-03-11T07:55:18;9.81;91.63
66586;SHT30;53444;45.822;16.092;2023-03-11T07:57:46;9.74;91.20
66586;SHT30;53444;45.822;16.092;2023-03-11T08:00:14;9.86;91.59
66586;SHT30;53444;45.822;16.092;2023-03-11T08:02:41;9.96;91.46
66586;SHT30;53444;45.822;16.092;2023-03-11T08:05:09;10.02;90.97
66586;SHT30;53444;45.822;16.092;2023-03-11T08:07:36;10.10;90.64
66586;SHT30;53444;45.822;16.092;2023-03-11T08:10:02;10.17;90.22
66586;SHT30;53444;45.822;16.092;2023-03-11T08:12:31;10.28;90.08
66586;SHT30;53444;45.822;16.092;2023-03-11T08:14:57;10.35;90.18
66586;SHT30;53444;45.822;16.092;2023-03-11T08:17:24;10.42;89.85
66586;SHT30;53444;45.822;16.092;2023-03-11T08:19:51;10.42;90.00
66586;SHT30;53444;45.822;16.092;2023-03-11T08:22:17;10.26;89.74
66586;SHT30;53444;45.822;16.092;2023-03-11T08:24:44;10.33;90.08
66586;SHT30;53444;45.822;16.092;2023-03-11T08:27:11;10.40;89.80
66586;SHT30;53444;45.822;16.092;2023-03-11T08:29:39;10.23;89.17
66586;SHT30;53444;45.822;16.092;2023-03-11T08:32:06;10.37;89.38
66586;SHT30;53444;45.822;16.092;2023-03-11T08:34:32;10.42;89.24
66586;SHT30;53444;45.822;16.092;2023-03-11T08:37:00;10.61;89.46
66586;SHT30;53444;45.822;16.092;2023-03-11T08:39:26;10.59;88.19
66586;SHT30;53444;45.822;16.092;2023-03-11T08:41:53;10.61;88.06
66586;SHT30;53444;45.822;16.092;2023-03-11T08:44:20;10.66;87.18
66586;SHT30;53444;45.822;16.092;2023-03-11T08:46:48;10.53;87.61
66586;SHT30;53444;45.822;16.092;2023-03-11T08:49:15;10.59;88.46
66586;SHT30;53444;45.822;16.092;2023-03-11T08:51:41;10.61;88.87
66586;SHT30;53444;45.822;16.092;2023-03-11T08:54:08;10.47;88.71
66586;SHT30;53444;45.822;16.092;2023-03-11T08:56:35;10.59;88.71
66586;SHT30;53444;45.822;16.092;2023-03-11T08:59:01;10.42;87.18
66586;SHT30;53444;45.822;16.092;2023-03-11T09:01:28;10.45;87.81
66586;SHT30;53444;45.822;16.092;2023-03-11T09:03:56;10.39;87.72
66586;SHT30;53444;45.822;16.092;2023-03-11T09:06:23;10.28;87.19
66586;SHT30;53444;45.822;16.092;2023-03-11T09:08:50;10.40;86.82
66586;SHT30;53444;45.822;16.092;2023-03-11T09:11:18;10.57;85.59
66586;SHT30;53444;45.822;16.092;2023-03-11T09:13:47;10.74;84.61
66586;SHT30;53444;45.822;16.092;2023-03-11T09:16:16;10.91;84.18
66586;SHT30;53444;45.822;16.092;2023-03-11T09:18:42;11.01;84.44
66586;SHT30;53444;45.822;16.092;2023-03-11T09:21:11;11.11;82.92
66586;SHT30;53444;45.822;16.092;2023-03-11T09:23:38;11.17;83.16
66586;SHT30;53444;45.822;16.092;2023-03-11T09:26:05;11.15;82.93
66586;SHT30;53444;45.822;16.092;2023-03-11T09:28:32;11.07;81.97
66586;SHT30;53444;45.822;16.092;2023-03-11T09:30:59;11.08;80.79
66586;SHT30;53444;45.822;16.092;2023-03-11T09:33:25;11.22;79.92
66586;SHT30;53444;45.822;16.092;2023-03-11T09:35:52;11.24;80.18
66586;SHT30;53444;45.822;16.092;2023-03-11T09:38:20;11.04;79.92
66586;SHT30;53444;45.822;16.092;2023-03-11T09:40:55;11.07;80.49
66586;SHT30;53444;45.822;16.092;2023-03-11T09:43:32;11.06;79.78
66586;SHT30;53444;45.822;16.092;2023-03-11T09:46:05;10.94;80.31
66586;SHT30;53444;45.822;16.092;2023-03-11T09:48:42;11.08;79.64
66586;SHT30;53444;45.822;16.092;2023-03-11T09:51:15;11.00;79.30
66586;SHT30;53444;45.822;16.092;2023-03-11T09:53:46;10.80;79.39
66586;SHT30;53444;45.822;16.092;2023-03-11T09:56:17;10.80;78.90
66586;SHT30;53444;45.822;16.092;2023-03-11T09:58:47;10.88;78.97
66586;SHT30;53444;45.822;16.092;2023-03-11T10:01:18;10.85;79.28
66586;SHT30;53444;45.822;16.092;2023-03-11T10:03:47;10.88;79.67
66586;SHT30;53444;45.822;16.092;2023-03-11T10:06:16;10.85;78.97
66586;SHT30;53444;45.822;16.092;2023-03-11T10:08:51;11.28;77.94
66586;SHT30;53444;45.822;16.092;2023-03-11T10:11:30;11.68;77.49
66586;SHT30;53444;45.822;16.092;2023-03-11T10:14:08;11.91;76.92
66586;SHT30;53444;45.822;16.092;2023-03-11T10:16:42;12.03;76.19
66586;SHT30;53444;45.822;16.092;2023-03-11T10:19:18;12.03;76.42
66586;SHT30;53444;45.822;16.092;2023-03-11T10:21:54;11.94;75.94
66586;SHT30;53444;45.822;16.092;2023-03-11T10:24:46;12.10;75.70
66586;SHT30;53444;45.822;16.092;2023-03-11T10:27:19;11.89;73.75
66586;SHT30;53444;45.822;16.092;2023-03-11T10:29:51;11.97;74.15
66586;SHT30;53444;45.822;16.092;2023-03-11T10:32:24;12.04;74.13
66586;SHT30;53444;45.822;16.092;2023-03-11T10:34:54;12.06;74.55
66586;SHT30;53444;45.822;16.092;2023-03-11T10:37:24;12.00;74.92
66586;SHT30;53444;45.822;16.092;2023-03-11T10:39:53;12.47;74.51
66586;SHT30;53444;45.822;16.092;2023-03-11T10:42:22;12.24;76.33
66586;SHT30;53444;45.822;16.092;2023-03-11T10:44:50;11.96;76.43
66586;SHT30;53444;45.822;16.092;2023-03-11T10:47:19;11.86;76.93
66586;SHT30;53444;45.822;16.092;2023-03-11T10:49:47;11.72;77.17
66586;SHT30;53444;45.822;16.092;2023-03-11T10:52:14;11.87;76.65
66586;SHT30;53444;45.822;16.092;2023-03-11T10:54:42;11.72;75.70
66586;SHT30;53444;45.822;16.092;2023-03-11T10:57:23;11.69;75.75
66586;SHT30;53444;45.822;16.092;2023-03-11T10:59:51;11.54;77.48
66586;SHT30;53444;45.822;16.092;2023-03-11T11:02:24;11.11;78.26
66586;SHT30;53444;45.822;16.092;2023-03-11T11:05:04;11.04;77.53
66586;SHT30;53444;45.822;16.092;2023-03-11T11:07:33;10.97;78.11
66586;SHT30;53444;45.822;16.092;2023-03-11T11:10:17;11.17;76.52
66586;SHT30;53444;45.822;16.092;2023-03-11T11:12:56;11.25;77.25
66586;SHT30;53444;45.822;16.092;2023-03-11T11:15:26;11.19;76.12
66586;SHT30;53444;45.822;16.092;2023-03-11T11:17:54;11.10;75.45
66586;SHT30;53444;45.822;16.092;2023-03-11T11:20:29;11.12;73.72
66586;SHT30;53444;45.822;16.092;2023-03-11T11:22:58;11.12;72.34
66586;SHT30;53444;45.822;16.092;2023-03-11T11:25:31;11.43;74.11
66586;SHT30;53444;45.822;16.092;2023-03-11T11:28:01;11.69;72.87
66586;SHT30;53444;45.822;16.092;2023-03-11T11:30:29;11.61;71.60
66586;SHT30;53444;45.822;16.092;2023-03-11T11:33:24;11.61;71.61
66586;SHT30;53444;45.822;16.092;2023-03-11T11:35:54;11.65;72.66
66586;SHT30;53444;45.822;16.092;2023-03-11T11:38:23;11.82;72.69
66586;SHT30;53444;45.822;16.092;2023-03-11T11:40:52;11.83;71.20
66586;SHT30;53444;45.822;16.092;2023-03-11T11:43:35;12.16;70.38
66586;SHT30;53444;45.822;16.092;2023-03-11T11:46:08;12.07;70.59
66586;SHT30;53444;45.822;16.092;2023-03-11T11:48:49;12.24;71.38
66586;SHT30;53444;45.822;16.092;2023-03-11T11:51:23;12.58;70.85
66586;SHT30;53444;45.822;16.092;2023-03-11T11:53:56;12.74;71.56
66586;SHT30;53444;45.822;16.092;2023-03-11T11:56:25;12.78;70.35
66586;SHT30;53444;45.822;16.092;2023-03-11T11:58:53;12.62;69.61
66586;SHT30;53444;45.822;16.092;2023-03-11T12:01:29;12.62;69.59
66586;SHT30;53444;45.822;16.092;2023-03-11T12:07:13;12.27;68.01
66586;SHT30;53444;45.822;16.092;2023-03-11T12:09:49;12.36;68.37
66586;SHT30;53444;45.822;16.092;2023-03-11T12:12:22;12.40;68.79
66586;SHT30;53444;45.822;16.092;2023-03-11T12:14:58;12.30;68.62
66586;SHT30;53444;45.822;16.092;2023-03-11T12:17:27;12.42;68.85
66586;SHT30;53444;45.822;16.092;2023-03-11T12:19:59;12.58;68.10
66586;SHT30;53444;45.822;16.092;2023-03-11T12:22:54;12.91;66.06
66586;SHT30;53444;45.822;16.092;2023-03-11T12:25:32;13.09;66.05
66586;SHT30;53444;45.822;16.092;2023-03-11T12:28:08;13.42;63.79
66586;SHT30;53444;45.822;16.092;2023-03-11T12:30:43;13.94;63.17
66586;SHT30;53444;45.822;16.092;2023-03-11T12:33:15;14.08;61.55
66586;SHT30;53444;45.822;16.092;2023-03-11T12:35:48;14.54;61.16
66586;SHT30;53444;45.822;16.092;2023-03-11T12:38:18;14.55;60.10
66586;SHT30;53444;45.822;16.092;2023-03-11T12:41:04;14.80;61.04
66586;SHT30;53444;45.822;16.092;2023-03-11T12:47:19;14.63;59.80
66586;SHT30;53444;45.822;16.092;2023-03-11T12:49:48;14.92;59.61
66586;SHT30;53444;45.822;16.092;2023-03-11T12:52:22;15.08;59.35
66586;SHT30;53444;45.822;16.092;2023-03-11T12:58:36;14.89;57.91
66586;SHT30;53444;45.822;16.092;2023-03-11T13:01:19;14.76;58.69
66586;SHT30;53444;45.822;16.092;2023-03-11T13:04:10;14.52;58.84
66586;SHT30;53444;45.822;16.092;2023-03-11T13:06:53;14.29;59.20
66586;SHT30;53444;45.822;16.092;2023-03-11T13:09:24;14.29;59.77
66586;SHT30;53444;45.822;16.092;2023-03-11T13:11:50;14.18;58.44
66586;SHT30;53444;45.822;16.092;2023-03-11T13:14:29;13.69;60.02
66586;SHT30;53444;45.822;16.092;2023-03-11T13:17:19;13.81;59.85
66586;SHT30;53444;45.822;16.092;2023-03-11T13:19:50;13.93;60.22
66586;SHT30;53444;45.822;16.092;2023-03-11T13:22:40;14.08;58.99
66586;SHT30;53444;45.822;16.092;2023-03-11T13:25:38;14.21;56.49
66586;SHT30;53444;45.822;16.092;2023-03-11T13:28:16;14.44;57.44
66586;SHT30;53444;45.822;16.092;2023-03-11T13:30:51;14.05;58.48
66586;SHT30;53444;45.822;16.092;2023-03-11T13:33:27;14.42;57.20
66586;SHT30;53444;45.822;16.092;2023-03-11T13:36:08;15.08;57.46
66586;SHT30;53444;45.822;16.092;2023-03-11T13:38:53;15.04;56.78
66586;SHT30;53444;45.822;16.092;2023-03-11T13:41:28;14.51;57.70
66586;SHT30;53444;45.822;16.092;2023-03-11T13:43:59;14.38;57.62
66586;SHT30;53444;45.822;16.092;2023-03-11T13:46:35;14.17;58.38
66586;SHT30;53444;45.822;16.092;2023-03-11T13:49:06;14.15;58.72
66586;SHT30;53444;45.822;16.092;2023-03-11T13:51:38;14.25;58.22
66586;SHT30;53444;45.822;16.092;2023-03-11T13:54:20;14.13;58.80
66586;SHT30;53444;45.822;16.092;2023-03-11T13:56:52;13.69;57.73
66586;SHT30;53444;45.822;16.092;2023-03-11T13:59:22;13.63;59.31
66586;SHT30;53444;45.822;16.092;2023-03-11T14:01:51;13.30;59.69
66586;SHT30;53444;45.822;16.092;2023-03-11T14:04:22;13.08;60.43
66586;SHT30;53444;45.822;16.092;2023-03-11T14:06:51;12.98;61.38
66586;SHT30;53444;45.822;16.092;2023-03-11T14:09:19;12.95;61.59
66586;SHT30;53444;45.822;16.092;2023-03-11T14:11:46;13.15;60.62
66586;SHT30;53444;45.822;16.092;2023-03-11T14:14:33;13.05;59.82
66586;SHT30;53444;45.822;16.092;2023-03-11T14:17:07;13.36;59.46
66586;SHT30;53444;45.822;16.092;2023-03-11T14:19:38;13.30;59.72
66586;SHT30;53444;45.822;16.092;2023-03-11T14:22:07;13.71;59.05
66586;SHT30;53444;45.822;16.092;2023-03-11T14:24:34;13.62;58.49
66586;SHT30;53444;45.822;16.092;2023-03-11T14:27:03;13.56;58.74
66586;SHT30;53444;45.822;16.092;2023-03-11T14:29:34;14.20;57.30
66586;SHT30;53444;45.822;16.092;2023-03-11T14:32:16;13.64;58.30
66586;SHT30;53444;45.822;16.092;2023-03-11T14:34:48;13.40;58.58
66586;SHT30;53444;45.822;16.092;2023-03-11T14:37:24;13.26;58.85
66586;SHT30;53444;45.822;16.092;2023-03-11T14:39:50;12.72;60.12
66586;SHT30;53444;45.822;16.092;2023-03-11T14:42:21;13.03;59.99
66586;SHT30;53444;45.822;16.092;2023-03-11T14:44:50;13.13;59.26
66586;SHT30;53444;45.822;16.092;2023-03-11T14:47:26;13.08;58.67
66586;SHT30;53444;45.822;16.092;2023-03-11T14:49:57;13.01;58.82
66586;SHT30;53444;45.822;16.092;2023-03-11T14:52:32;13.01;59.07
66586;SHT30;53444;45.822;16.092;2023-03-11T14:55:03;13.20;59.19
66586;SHT30;53444;45.822;16.092;2023-03-11T14:57:36;12.92;59.37
66586;SHT30;53444;45.822;16.092;2023-03-11T15:00:04;12.71;59.90
66586;SHT30;53444;45.822;16.092;2023-03-11T15:02:42;12.61;60.15
66586;SHT30;53444;45.822;16.092;2023-03-11T15:05:16;12.71;59.96
66586;SHT30;53444;45.822;16.092;2023-03-11T15:07:44;12.65;60.61
66586;SHT30;53444;45.822;16.092;2023-03-11T15:10:12;12.55;60.72
66586;SHT30;53444;45.822;16.092;2023-03-11T15:12:40;12.40;60.50
66586;SHT30;53444;45.822;16.092;2023-03-11T15:15:22;12.40;61.18
66586;SHT30;53444;45.822;16.092;2023-03-11T15:17:56;12.47;59.77
66586;SHT30;53444;45.822;16.092;2023-03-11T15:20:28;12.65;60.11
66586;SHT30;53444;45.822;16.092;2023-03-11T15:22:57;13.49;57.44
66586;SHT30;53444;45.822;16.092;2023-03-11T15:25:27;13.12;58.00
66586;SHT30;53444;45.822;16.092;2023-03-11T15:27:54;13.05;58.56
66586;SHT30;53444;45.822;16.092;2023-03-11T15:30:23;12.96;58.18
66586;SHT30;53444;45.822;16.092;2023-03-11T15:32:51;13.11;58.92
66586;SHT30;53444;45.822;16.092;2023-03-11T15:35:20;14.61;55.43
66586;SHT30;53444;45.822;16.092;2023-03-11T15:37:50;16.02;50.56
66586;SHT30;53444;45.822;16.092;2023-03-11T15:40:21;15.45;50.99
66586;SHT30;53444;45.822;16.092;2023-03-11T15:43:15;16.15;49.79
66586;SHT30;53444;45.822;16.092;2023-03-11T15:45:43;16.90;48.36
66586;SHT30;53444;45.822;16.092;2023-03-11T15:48:11;17.59;45.19